Time,TemperatureF,DewpointF,PressureIn,WindDirection,WindDirectionDegrees,WindSpeedMPH,WindSpeedGustMPH,Humidity,HourlyPrecipIn,Conditions,Clouds,dailyrainin,SolarRadiationWatts/m^2,SoftwareType,DateUTC
2013-05-14 00:01:00,53.0,29.0,-100.00,SW,215,10.0,21.0,40,0.00,,,0.00,0.000000,,2013-05-14 05:01:00,
2013-05-14 00:22:00,53.0,29.0,-100.00,SW,215,10.0,21.0,40,0.00,,,0.00,0.000000,,2013-05-14 05:22:00,
2013-05-14 00:32:00,53.0,29.0,-100.00,SW,215,10.0,21.0,40,0.00,,,0.00,0.000000,,2013-05-14 05:32:00,
2013-05-14 00:42:00,53.0,29.0,-100.00,SW,215,10.0,21.0,40,0.00,,,0.00,0.000000,,2013-05-14 05:42:00,
2013-05-14 00:52:00,53.0,29.0,-100.00,SW,215,10.0,21.0,40,0.00,,,0.00,0.000000,,2013-05-14 05:52:00,
2013-05-14 01:01:00,52.0,30.0,-100.00,SSW,209,10.0,21.0,42,0.00,,,0.00,0.000000,,2013-05-14 06:01:00,
2013-05-14 01:32:00,52.0,30.0,-100.00,SSW,209,10.0,21.0,42,0.00,,,0.00,0.000000,,2013-05-14 06:32:00,
2013-05-14 01:42:00,52.0,30.0,-100.00,SSW,209,10.0,21.0,42,0.00,,,0.00,0.000000,,2013-05-14 06:42:00,
2013-05-14 01:52:00,52.0,30.0,-100.00,SSW,209,10.0,21.0,42,0.00,,,0.00,0.000000,,2013-05-14 06:52:00,
2013-05-14 02:01:00,51.0,32.0,-100.00,SSW,203,8.0,20.0,48,0.00,,,0.00,0.000000,,2013-05-14 07:01:00,
2013-05-14 02:32:00,51.0,32.0,-100.00,SSW,203,8.0,20.0,48,0.00,,,0.00,0.000000,,2013-05-14 07:32:00,
2013-05-14 02:42:00,51.0,32.0,-100.00,SSW,203,8.0,20.0,48,0.00,,,0.00,0.000000,,2013-05-14 07:42:00,
2013-05-14 02:52:00,51.0,32.0,-100.00,SSW,203,8.0,20.0,48,0.00,,,0.00,0.000000,,2013-05-14 07:52:00,
2013-05-14 03:01:00,49.0,31.0,-100.00,SW,235,5.0,15.0,50,0.00,,,0.00,0.000000,,2013-05-14 08:01:00,
2013-05-14 03:22:00,49.0,31.0,-100.00,SW,235,5.0,15.0,50,0.00,,,0.00,0.000000,,2013-05-14 08:22:00,
2013-05-14 03:32:00,49.0,31.0,-100.00,SW,235,5.0,15.0,50,0.00,,,0.00,0.000000,,2013-05-14 08:32:00,
2013-05-14 03:42:00,49.0,31.0,-100.00,SW,235,5.0,15.0,50,0.00,,,0.00,0.000000,,2013-05-14 08:42:00,
2013-05-14 03:52:00,49.0,31.0,-100.00,SW,235,5.0,15.0,50,0.00,,,0.00,0.000000,,2013-05-14 08:52:00,
2013-05-14 04:01:00,47.0,33.0,-100.00,NW,309,2.0,8.0,57,0.00,,,0.00,0.000000,,2013-05-14 09:01:00,
2013-05-14 04:33:00,47.0,33.0,-100.00,NW,309,2.0,8.0,57,0.00,,,0.00,0.000000,,2013-05-14 09:33:00,
2013-05-14 04:44:00,47.0,33.0,-100.00,NW,309,2.0,8.0,57,0.00,,,0.00,0.000000,,2013-05-14 09:44:00,
2013-05-14 04:54:00,47.0,33.0,-100.00,NW,309,2.0,8.0,57,0.00,,,0.00,0.000000,,2013-05-14 09:54:00,
2013-05-14 05:01:00,44.0,34.0,-100.00,West,268,3.0,6.0,67,0.00,,,0.00,0.000000,,2013-05-14 10:01:00,
2013-05-14 05:33:00,44.0,34.0,-100.00,West,268,3.0,6.0,67,0.00,,,0.00,0.000000,,2013-05-14 10:33:00,
2013-05-14 05:42:00,44.0,34.0,-100.00,West,268,3.0,6.0,67,0.00,,,0.00,0.000000,,2013-05-14 10:42:00,
2013-05-14 05:52:00,44.0,34.0,-100.00,West,268,3.0,6.0,67,0.00,,,0.00,0.000000,,2013-05-14 10:52:00,
2013-05-14 06:01:00,40.0,34.0,-100.00,WNW,287,2.0,5.0,78,0.00,,,0.00,9.000000,,2013-05-14 11:01:00,
2013-05-14 06:32:00,40.0,34.0,-100.00,WNW,287,2.0,5.0,78,0.00,,,0.00,9.000000,,2013-05-14 11:32:00,
2013-05-14 06:43:00,40.0,34.0,-100.00,WNW,287,2.0,5.0,78,0.00,,,0.00,9.000000,,2013-05-14 11:43:00,
2013-05-14 06:53:00,40.0,34.0,-100.00,WNW,287,2.0,5.0,78,0.00,,,0.00,9.000000,,2013-05-14 11:53:00,
2013-05-14 07:01:00,49.0,35.0,-100.00,SSW,203,3.0,6.0,59,0.00,,,0.00,132.000000,,2013-05-14 12:01:00,
2013-05-14 07:22:00,49.0,35.0,-100.00,SSW,203,3.0,6.0,59,0.00,,,0.00,132.000000,,2013-05-14 12:22:00,
2013-05-14 07:32:00,49.0,35.0,-100.00,SSW,203,3.0,6.0,59,0.00,,,0.00,132.000000,,2013-05-14 12:32:00,
2013-05-14 07:42:00,49.0,35.0,-100.00,SSW,203,3.0,6.0,59,0.00,,,0.00,132.000000,,2013-05-14 12:42:00,
2013-05-14 07:52:00,49.0,35.0,-100.00,SSW,203,3.0,6.0,59,0.00,,,0.00,132.000000,,2013-05-14 12:52:00,
2013-05-14 08:01:00,54.0,38.0,-100.00,SW,226,5.0,8.0,54,0.00,,,0.00,327.000000,,2013-05-14 13:01:00,
2013-05-14 08:22:00,54.0,38.0,-100.00,SW,226,5.0,8.0,54,0.00,,,0.00,327.000000,,2013-05-14 13:22:00,
2013-05-14 08:32:00,54.0,38.0,-100.00,SW,226,5.0,8.0,54,0.00,,,0.00,327.000000,,2013-05-14 13:32:00,
2013-05-14 08:42:00,54.0,38.0,-100.00,SW,226,5.0,8.0,54,0.00,,,0.00,327.000000,,2013-05-14 13:42:00,
2013-05-14 08:52:00,54.0,38.0,-100.00,SW,226,5.0,8.0,54,0.00,,,0.00,327.000000,,2013-05-14 13:52:00,
2013-05-14 09:01:00,58.0,39.0,-100.00,WSW,241,5.0,8.0,49,0.00,,,-99.99,428.000000,,2013-05-14 14:01:00,
2013-05-14 09:22:00,58.0,39.0,-100.00,WSW,241,5.0,8.0,49,0.00,,,-99.99,428.000000,,2013-05-14 14:22:00,
2013-05-14 09:32:00,58.0,39.0,-100.00,WSW,241,5.0,8.0,49,0.00,,,-99.99,428.000000,,2013-05-14 14:32:00,
2013-05-14 09:42:00,58.0,39.0,-100.00,WSW,241,5.0,8.0,49,0.00,,,-99.99,428.000000,,2013-05-14 14:42:00,
2013-05-14 09:52:00,58.0,39.0,-100.00,WSW,241,5.0,8.0,49,0.00,,,-99.99,428.000000,,2013-05-14 14:52:00,
2013-05-14 10:01:00,58.0,39.0,-100.00,SW,225,4.0,8.0,50,0.00,,,0.00,283.000000,,2013-05-14 15:01:00,
2013-05-14 10:33:00,58.0,39.0,-100.00,SW,225,4.0,8.0,50,0.00,,,0.00,283.000000,,2013-05-14 15:33:00,
2013-05-14 10:43:00,58.0,39.0,-100.00,SW,225,4.0,8.0,50,0.00,,,0.00,283.000000,,2013-05-14 15:43:00,
2013-05-14 10:53:00,58.0,39.0,-100.00,SW,225,4.0,8.0,50,0.00,,,0.00,283.000000,,2013-05-14 15:53:00,
2013-05-14 11:01:00,59.0,40.0,-100.00,West,277,4.0,6.0,50,0.00,,,0.00,184.000000,,2013-05-14 16:01:00,
2013-05-14 11:33:00,59.0,40.0,-100.00,West,277,4.0,6.0,50,0.00,,,0.00,184.000000,,2013-05-14 16:33:00,
2013-05-14 11:44:00,59.0,40.0,-100.00,West,277,4.0,6.0,50,0.00,,,0.00,184.000000,,2013-05-14 16:44:00,
2013-05-14 11:54:00,59.0,40.0,-100.00,West,277,4.0,6.0,50,0.00,,,0.00,184.000000,,2013-05-14 16:54:00,
2013-05-14 12:01:00,60.0,41.0,-100.00,WNW,282,3.0,10.0,50,0.00,,,0.00,250.000000,,2013-05-14 17:01:00,
2013-05-14 12:24:00,60.0,41.0,-100.00,WNW,282,3.0,10.0,50,0.00,,,0.00,250.000000,,2013-05-14 17:24:00,
2013-05-14 12:33:00,60.0,41.0,-100.00,WNW,282,3.0,10.0,50,0.00,,,0.00,250.000000,,2013-05-14 17:33:00,
2013-05-14 12:43:00,60.0,41.0,-100.00,WNW,282,3.0,10.0,50,0.00,,,0.00,250.000000,,2013-05-14 17:43:00,
2013-05-14 12:52:00,60.0,41.0,-100.00,WNW,282,3.0,10.0,50,0.00,,,0.00,250.000000,,2013-05-14 17:52:00,
2013-05-14 13:01:00,62.0,46.0,-100.00,South,176,5.0,8.0,55,0.00,,,-99.99,256.000000,,2013-05-14 18:01:00,
2013-05-14 13:32:00,62.0,46.0,-100.00,South,176,5.0,8.0,55,0.00,,,-99.99,256.000000,,2013-05-14 18:32:00,
2013-05-14 13:42:00,62.0,46.0,-100.00,South,176,5.0,8.0,55,0.00,,,-99.99,256.000000,,2013-05-14 18:42:00,
2013-05-14 13:52:00,62.0,46.0,-100.00,South,176,5.0,8.0,55,0.00,,,-99.99,256.000000,,2013-05-14 18:52:00,
2013-05-14 14:01:00,67.0,46.0,-100.00,South,177,6.0,12.0,46,0.00,,,0.00,462.000000,,2013-05-14 19:01:00,
2013-05-14 14:32:00,67.0,46.0,-100.00,South,177,6.0,12.0,46,0.00,,,0.00,462.000000,,2013-05-14 19:32:00,
2013-05-14 14:42:00,67.0,46.0,-100.00,South,177,6.0,12.0,46,0.00,,,0.00,462.000000,,2013-05-14 19:42:00,
2013-05-14 14:53:00,67.0,46.0,-100.00,South,177,6.0,12.0,46,0.00,,,0.00,462.000000,,2013-05-14 19:53:00,
2013-05-14 15:01:00,73.0,44.0,-100.00,SE,145,9.0,15.0,35,0.00,,,0.00,968.000000,,2013-05-14 20:01:00,
2013-05-14 15:33:00,73.0,44.0,-100.00,SE,145,9.0,15.0,35,0.00,,,0.00,968.000000,,2013-05-14 20:33:00,
2013-05-14 15:44:00,73.0,44.0,-100.00,SE,145,9.0,15.0,35,0.00,,,0.00,968.000000,,2013-05-14 20:44:00,
2013-05-14 15:52:00,73.0,44.0,-100.00,SE,145,9.0,15.0,35,0.00,,,0.00,968.000000,,2013-05-14 20:52:00,
2013-05-14 16:01:00,77.0,44.0,-100.00,South,174,8.0,17.0,31,0.00,,,0.00,842.000000,,2013-05-14 21:01:00,
2013-05-14 16:34:00,77.0,44.0,-100.00,South,174,8.0,17.0,31,0.00,,,0.00,842.000000,,2013-05-14 21:34:00,
2013-05-14 16:43:00,77.0,44.0,-100.00,South,174,8.0,17.0,31,0.00,,,0.00,842.000000,,2013-05-14 21:43:00,
2013-05-14 16:53:00,77.0,44.0,-100.00,South,174,8.0,17.0,31,0.00,,,0.00,842.000000,,2013-05-14 21:53:00,
2013-05-14 17:01:00,80.0,44.0,-100.00,SSW,202,10.0,19.0,28,0.00,,,0.00,686.000000,,2013-05-14 22:01:00,
2013-05-14 17:35:00,80.0,44.0,-100.00,SSW,202,10.0,19.0,28,0.00,,,0.00,686.000000,,2013-05-14 22:35:00,
2013-05-14 17:45:00,80.0,44.0,-100.00,SSW,202,10.0,19.0,28,0.00,,,0.00,686.000000,,2013-05-14 22:45:00,
2013-05-14 17:54:00,80.0,44.0,-100.00,SSW,202,10.0,19.0,28,0.00,,,0.00,686.000000,,2013-05-14 22:54:00,
2013-05-14 18:01:00,81.0,43.0,-100.00,SSW,198,11.0,20.0,26,0.00,,,0.00,493.000000,,2013-05-14 23:01:00,
2013-05-14 18:32:00,81.0,43.0,-100.00,SSW,198,11.0,20.0,26,0.00,,,0.00,493.000000,,2013-05-14 23:32:00,
2013-05-14 18:44:00,81.0,43.0,-100.00,SSW,198,11.0,20.0,26,0.00,,,0.00,493.000000,,2013-05-14 23:44:00,
2013-05-14 18:53:00,81.0,43.0,-100.00,SSW,198,11.0,20.0,26,0.00,,,0.00,493.000000,,2013-05-14 23:53:00,
2013-05-14 19:01:00,80.0,43.0,-100.00,SW,216,11.0,24.0,27,0.00,,,0.00,309.000000,,2013-05-15 00:01:00,
2013-05-14 19:32:00,80.0,43.0,-100.00,SW,216,11.0,24.0,27,0.00,,,0.00,309.000000,,2013-05-15 00:32:00,
2013-05-14 19:42:00,80.0,43.0,-100.00,SW,216,11.0,24.0,27,0.00,,,0.00,309.000000,,2013-05-15 00:42:00,
2013-05-14 19:52:00,80.0,43.0,-100.00,SW,216,11.0,24.0,27,0.00,,,0.00,309.000000,,2013-05-15 00:52:00,
2013-05-14 20:01:00,75.0,43.0,-100.00,SSW,206,6.0,18.0,32,0.00,,,0.00,104.000000,,2013-05-15 01:01:00,
2013-05-14 20:22:00,75.0,43.0,-100.00,SSW,206,6.0,18.0,32,0.00,,,0.00,104.000000,,2013-05-15 01:22:00,
2013-05-14 20:32:00,75.0,43.0,-100.00,SSW,206,6.0,18.0,32,0.00,,,0.00,104.000000,,2013-05-15 01:32:00,
2013-05-14 20:42:00,75.0,43.0,-100.00,SSW,206,6.0,18.0,32,0.00,,,0.00,104.000000,,2013-05-15 01:42:00,
2013-05-14 20:52:00,75.0,43.0,-100.00,SSW,206,6.0,18.0,32,0.00,,,0.00,104.000000,,2013-05-15 01:52:00,
2013-05-14 21:01:00,71.0,44.0,-100.00,SSW,206,6.0,14.0,38,0.00,,,0.00,6.000000,,2013-05-15 02:01:00,
2013-05-14 21:22:00,71.0,44.0,-100.00,SSW,206,6.0,14.0,38,0.00,,,0.00,6.000000,,2013-05-15 02:22:00,
2013-05-14 21:32:00,71.0,44.0,-100.00,SSW,206,6.0,14.0,38,0.00,,,0.00,6.000000,,2013-05-15 02:32:00,
2013-05-14 21:42:00,71.0,44.0,-100.00,SSW,206,6.0,14.0,38,0.00,,,0.00,6.000000,,2013-05-15 02:42:00,
2013-05-14 21:52:00,71.0,44.0,-100.00,SSW,206,6.0,14.0,38,0.00,,,0.00,6.000000,,2013-05-15 02:52:00,
2013-05-14 22:01:00,70.0,46.0,-100.00,West,274,6.0,20.0,42,0.00,,,0.00,0.000000,,2013-05-15 03:01:00,
2013-05-14 22:33:00,70.0,46.0,-100.00,West,274,6.0,20.0,42,0.00,,,0.00,0.000000,,2013-05-15 03:33:00,
2013-05-14 22:44:00,70.0,46.0,-100.00,West,274,6.0,20.0,42,0.00,,,0.00,0.000000,,2013-05-15 03:44:00,
2013-05-14 22:54:00,70.0,46.0,-100.00,West,274,6.0,20.0,42,0.00,,,0.00,0.000000,,2013-05-15 03:54:00,
2013-05-14 23:01:00,68.0,40.0,-100.00,NW,305,8.0,16.0,36,0.00,,,0.00,0.000000,,2013-05-15 04:01:00,
2013-05-14 23:33:00,68.0,40.0,-100.00,NW,305,8.0,16.0,36,0.00,,,0.00,0.000000,,2013-05-15 04:33:00,
2013-05-14 23:43:00,68.0,40.0,-100.00,NW,305,8.0,16.0,36,0.00,,,0.00,0.000000,,2013-05-15 04:43:00,
2013-05-14 23:52:00,68.0,40.0,-100.00,NW,305,8.0,16.0,36,0.00,,,0.00,0.000000,,2013-05-15 04:52:00,